createdAt,value
2018-08-03T00:01:47.808Z,17.70
2018-08-03T00:04:16.696Z,17.70
2018-08-03T00:06:45.290Z,17.60
2018-08-03T00:09:14.056Z,17.50
2018-08-03T00:11:42.754Z,17.30
2018-08-03T00:14:11.408Z,17.40
2018-08-03T00:16:40.099Z,17.40
2018-08-03T00:19:09.052Z,17.40
2018-08-03T00:21:38.203Z,17.40
2018-08-03T00:24:07.108Z,17.40
2018-08-03T00:26:35.954Z,17.50
2018-08-03T00:29:04.678Z,17.60
2018-08-03T00:31:33.365Z,17.90
2018-08-03T00:34:02.388Z,17.90
2018-08-03T00:36:31.291Z,17.80
2018-08-03T00:38:59.959Z,17.70
2018-08-03T00:41:28.801Z,17.70
2018-08-03T00:43:57.387Z,17.60
2018-08-03T00:46:26.025Z,17.50
2018-08-03T00:48:54.970Z,17.40
2018-08-03T00:51:24.465Z,17.40
2018-08-03T00:53:53.391Z,17.50
2018-08-03T00:56:22.235Z,17.60
2018-08-03T00:58:51.081Z,17.50
2018-08-03T01:01:19.683Z,17.40
2018-08-03T01:03:48.386Z,17.30
2018-08-03T01:06:17.024Z,17.50
2018-08-03T01:08:45.731Z,17.30
2018-08-03T01:11:14.439Z,17.30
2018-08-03T01:13:43.080Z,17.30
2018-08-03T01:16:11.679Z,17.30
2018-08-03T01:21:08.535Z,17.20
2018-08-03T01:23:37.469Z,17.40
2018-08-03T01:26:06.291Z,17.20
2018-08-03T01:28:35.559Z,17.20
2018-08-03T01:31:04.160Z,17.10
2018-08-03T01:33:32.810Z,17.10
2018-08-03T01:36:01.623Z,17.10
2018-08-03T01:38:30.442Z,17.10
2018-08-03T01:40:59.156Z,17.00
2018-08-03T01:43:27.861Z,17.00
2018-08-03T01:45:56.701Z,17.00
2018-08-03T01:48:25.656Z,16.90
2018-08-03T01:50:54.244Z,16.90
2018-08-03T01:53:22.888Z,16.90
2018-08-03T01:55:51.487Z,16.90
2018-08-03T01:58:20.136Z,16.90
2018-08-03T02:00:49.019Z,16.90
2018-08-03T02:03:17.690Z,16.90
2018-08-03T02:05:46.436Z,16.90
2018-08-03T02:08:15.294Z,16.90
2018-08-03T02:13:14.186Z,16.90
2018-08-03T02:15:43.253Z,16.90
2018-08-03T02:18:11.961Z,16.80
2018-08-03T02:20:40.614Z,16.80
2018-08-03T02:23:09.624Z,16.80
2018-08-03T02:25:38.604Z,16.70
2018-08-03T02:28:07.322Z,16.80
2018-08-03T02:30:36.016Z,16.80
2018-08-03T02:33:05.330Z,16.70
2018-08-03T02:35:34.132Z,16.70
2018-08-03T02:38:02.826Z,16.70
2018-08-03T02:40:32.148Z,16.70
2018-08-03T02:43:00.970Z,16.80
2018-08-03T02:45:29.578Z,16.80
2018-08-03T02:47:58.251Z,16.80
2018-08-03T02:50:27.320Z,16.80
2018-08-03T02:52:56.619Z,16.70
2018-08-03T02:55:25.455Z,16.70
2018-08-03T02:57:54.337Z,16.90
2018-08-03T03:00:23.741Z,16.90
2018-08-03T03:02:52.645Z,16.90
2018-08-03T03:05:21.369Z,16.70
2018-08-03T03:07:50.913Z,16.70
2018-08-03T03:10:19.553Z,16.80
2018-08-03T03:12:48.551Z,16.90
2018-08-03T03:15:17.261Z,16.70
2018-08-03T03:17:46.161Z,16.70
2018-08-03T03:20:14.797Z,16.70
2018-08-03T03:25:11.929Z,16.90
2018-08-03T03:27:41.030Z,16.70
2018-08-03T03:30:09.789Z,16.70
2018-08-03T03:32:38.911Z,16.70
2018-08-03T03:35:07.484Z,16.70
2018-08-03T03:37:36.129Z,16.90
2018-08-03T03:40:04.867Z,16.70
2018-08-03T03:42:33.553Z,16.70
2018-08-03T03:45:02.239Z,16.70
2018-08-03T03:47:30.968Z,16.70
2018-08-03T03:49:59.650Z,16.60
2018-08-03T03:52:28.351Z,16.40
2018-08-03T03:54:57.170Z,16.40
2018-08-03T03:57:25.756Z,16.40
2018-08-03T03:59:55.096Z,16.40
2018-08-03T04:02:23.904Z,16.50
2018-08-03T04:04:52.765Z,16.50
2018-08-03T04:07:21.692Z,16.50
2018-08-03T04:09:50.317Z,16.50
2018-08-03T04:12:19.074Z,16.50
2018-08-03T04:14:47.690Z,16.50
2018-08-03T04:17:17.046Z,16.50
2018-08-03T04:19:45.766Z,16.30
2018-08-03T04:22:14.368Z,16.20
2018-08-03T04:27:11.448Z,16.30
2018-08-03T04:29:40.228Z,16.30
2018-08-03T04:32:08.857Z,16.40
2018-08-03T04:34:37.642Z,16.40
2018-08-03T04:37:06.394Z,16.30
2018-08-03T04:39:35.464Z,16.50
2018-08-03T04:44:32.595Z,16.10
2018-08-03T04:47:01.563Z,16.10
2018-08-03T04:49:30.990Z,16.10
2018-08-03T04:51:59.739Z,16.20
2018-08-03T04:54:29.098Z,16.40
2018-08-03T04:56:57.704Z,16.20
2018-08-03T04:59:26.559Z,16.30
2018-08-03T05:01:55.277Z,16.40
2018-08-03T05:04:23.893Z,16.40
2018-08-03T05:06:52.998Z,16.40
2018-08-03T05:09:22.103Z,16.40
2018-08-03T05:11:50.758Z,16.70
2018-08-03T05:14:19.365Z,16.50
2018-08-03T05:16:48.135Z,16.50
2018-08-03T05:19:17.115Z,16.60
2018-08-03T05:21:45.795Z,16.60
2018-08-03T05:24:14.725Z,16.70
2018-08-03T05:26:43.414Z,16.80
2018-08-03T05:29:12.003Z,16.70
2018-08-03T05:31:40.656Z,16.90
2018-08-03T05:34:09.319Z,17.00
2018-08-03T05:36:38.025Z,16.80
2018-08-03T05:39:09.075Z,16.90
2018-08-03T05:41:38.160Z,16.90
2018-08-03T05:44:07.558Z,16.90
2018-08-03T05:46:36.431Z,16.90
2018-08-03T05:49:05.464Z,17.00
2018-08-03T05:51:34.410Z,17.00
2018-08-03T05:56:32.207Z,17.10
2018-08-03T05:59:00.978Z,17.20
2018-08-03T06:01:29.670Z,17.20
2018-08-03T06:03:58.360Z,17.20
2018-08-03T06:06:27.717Z,17.30
2018-08-03T06:11:25.430Z,17.40
2018-08-03T06:13:54.432Z,17.50
2018-08-03T06:16:23.296Z,17.60
2018-08-03T06:18:52.049Z,17.60
2018-08-03T06:21:20.692Z,17.70
2018-08-03T06:23:49.330Z,17.80
2018-08-03T06:26:18.360Z,17.80
2018-08-03T06:28:47.019Z,17.90
2018-08-03T06:31:15.674Z,18.00
2018-08-03T06:33:44.297Z,18.10
2018-08-03T06:36:12.921Z,18.20
2018-08-03T06:38:41.551Z,18.30
2018-08-03T06:41:10.485Z,18.40
2018-08-03T06:43:39.887Z,18.50
2018-08-03T06:46:08.540Z,18.60
2018-08-03T06:48:37.642Z,18.70
2018-08-03T06:51:06.337Z,18.80
2018-08-03T06:53:34.946Z,18.90
2018-08-03T06:56:03.840Z,19.00
2018-08-03T06:58:32.549Z,19.10
2018-08-03T07:01:01.210Z,19.20
2018-08-03T07:05:58.049Z,19.50
2018-08-03T07:08:26.878Z,19.70
2018-08-03T07:10:55.550Z,19.90
2018-08-03T07:13:24.440Z,20.10
2018-08-03T07:15:53.593Z,20.40
2018-08-03T07:18:22.180Z,20.50
2018-08-03T07:20:50.949Z,20.60
2018-08-03T07:23:20.528Z,20.60
2018-08-03T07:25:49.272Z,20.70
2018-08-03T07:28:17.954Z,20.70
2018-08-03T07:30:46.566Z,20.80
2018-08-03T07:33:15.737Z,20.90
2018-08-03T07:35:44.729Z,21.00
2018-08-03T07:38:13.849Z,21.10
2018-08-03T07:40:42.537Z,21.20
2018-08-03T07:43:11.193Z,21.30
2018-08-03T07:45:39.805Z,21.50
2018-08-03T07:48:08.595Z,21.80
2018-08-03T07:50:37.669Z,22.00
2018-08-03T07:55:35.579Z,22.10
2018-08-03T08:00:33.619Z,22.50
2018-08-03T08:03:02.265Z,22.70
2018-08-03T08:05:31.047Z,23.00
2018-08-03T08:07:59.621Z,23.10
2018-08-03T08:10:28.479Z,23.00
2018-08-03T08:12:57.209Z,23.10
2018-08-03T08:15:25.977Z,23.00
2018-08-03T08:17:55.096Z,23.10
2018-08-03T08:20:24.699Z,23.30
2018-08-03T08:22:53.302Z,23.10
2018-08-03T08:25:22.465Z,23.10
2018-08-03T08:27:51.230Z,23.20
2018-08-03T08:30:19.952Z,23.20
2018-08-03T08:32:48.651Z,23.30
2018-08-03T08:35:17.750Z,23.40
2018-08-03T08:37:46.430Z,23.50
2018-08-03T08:40:15.529Z,23.90
2018-08-03T08:42:44.168Z,23.90
2018-08-03T08:45:12.849Z,24.20
2018-08-03T08:47:41.454Z,24.00
2018-08-03T08:50:10.512Z,24.00
2018-08-03T08:52:39.300Z,24.50
2018-08-03T08:55:07.952Z,24.70
2018-08-03T08:57:36.805Z,24.80
2018-08-03T09:00:06.072Z,24.60
2018-08-03T09:02:35.213Z,24.40
2018-08-03T09:05:03.916Z,24.40
2018-08-03T09:07:32.504Z,24.50
2018-08-03T09:51:52.942Z,24.70
2018-08-03T09:56:50.769Z,25.00
2018-08-03T09:59:19.588Z,25.20
2018-08-03T10:01:48.418Z,25.30
2018-08-03T10:04:17.192Z,25.30
2018-08-03T10:06:45.897Z,25.40
2018-08-03T10:09:14.640Z,25.50
2018-08-03T10:11:43.258Z,25.60
2018-08-03T10:14:12.257Z,25.80
2018-08-03T10:24:40.549Z,26.00
2018-08-03T10:27:09.678Z,26.00
2018-08-03T10:29:38.376Z,26.20
2018-08-03T10:32:06.978Z,26.20
2018-08-03T10:34:35.714Z,26.40
2018-08-03T10:37:04.727Z,26.60
2018-08-03T10:39:33.505Z,26.90
2018-08-03T11:13:06.662Z,26.40
2018-08-03T11:15:35.348Z,26.40
2018-08-03T11:18:04.292Z,26.50
2018-08-03T11:20:33.048Z,26.60
2018-08-03T11:23:01.825Z,26.70
2018-08-03T11:25:30.686Z,26.70
2018-08-03T11:27:59.567Z,26.90
2018-08-03T11:32:57.981Z,27.20
2018-08-03T11:35:26.808Z,27.20
2018-08-03T11:37:56.303Z,27.20
2018-08-03T11:40:25.194Z,27.30
2018-08-03T11:42:54.095Z,27.50
2018-08-03T11:45:23.883Z,27.40
2018-08-03T11:47:57.555Z,27.50
2018-08-03T11:50:26.334Z,27.80
2018-08-03T11:55:23.556Z,27.80
2018-08-03T11:57:54.522Z,27.90
2018-08-03T12:00:23.288Z,27.80
2018-08-03T12:02:51.987Z,28.00
2018-08-03T12:05:20.759Z,28.00
2018-08-03T12:07:49.568Z,27.80
2018-08-03T12:10:18.640Z,27.90
2018-08-03T12:12:47.529Z,27.90
2018-08-03T12:15:16.195Z,27.80
2018-08-03T12:17:44.998Z,27.70
2018-08-03T12:20:14.751Z,27.80
2018-08-03T12:22:43.995Z,27.90
2018-08-03T12:25:12.837Z,27.80
2018-08-03T12:27:41.766Z,27.80
2018-08-03T12:30:10.363Z,27.80
2018-08-03T12:32:39.364Z,27.80
2018-08-03T12:51:14.790Z,27.30
2018-08-03T12:53:46.716Z,27.30
2018-08-03T12:56:16.141Z,27.20
2018-08-03T12:58:44.923Z,27.20
2018-08-03T13:01:13.686Z,27.20
2018-08-03T13:03:42.722Z,27.30
2018-08-03T13:06:11.620Z,27.40
2018-08-03T13:08:40.372Z,27.50
2018-08-03T13:11:09.040Z,27.40
2018-08-03T13:13:38.274Z,27.60
2018-08-03T13:16:07.324Z,27.60
2018-08-03T13:18:36.694Z,27.40
2018-08-03T13:22:16.952Z,27.50
2018-08-03T13:24:45.892Z,27.50
2018-08-03T13:27:14.575Z,27.40
2018-08-03T13:29:43.620Z,27.40
2018-08-03T13:58:28.774Z,27.00
2018-08-03T14:01:08.712Z,27.00
2018-08-03T14:03:37.320Z,27.00
2018-08-03T14:06:08.252Z,27.20
2018-08-03T14:08:37.075Z,27.20
2018-08-03T14:11:06.037Z,27.20
2018-08-03T14:13:34.918Z,27.20
2018-08-03T14:18:32.320Z,27.40
2018-08-03T14:21:01.078Z,27.50
2018-08-03T14:23:30.131Z,27.50
2018-08-03T14:25:59.140Z,27.50
2018-08-03T14:31:10.263Z,27.70
2018-08-03T14:36:07.858Z,27.80
2018-08-03T14:38:36.827Z,27.70
2018-08-03T14:41:05.928Z,27.80
2018-08-03T14:43:34.875Z,27.90
2018-08-03T14:46:04.013Z,27.90
2018-08-03T14:48:33.280Z,28.00
2018-08-03T14:51:01.971Z,28.00
2018-08-03T14:53:30.996Z,28.10
2018-08-03T14:55:59.850Z,28.10
2018-08-03T14:58:28.770Z,28.00
2018-08-03T15:00:57.448Z,28.00
2018-08-03T15:03:26.277Z,28.10
2018-08-03T15:05:55.336Z,28.20
2018-08-03T15:08:24.651Z,28.20
2018-08-03T15:10:54.693Z,28.10
2018-08-03T15:13:23.801Z,28.10
2018-08-03T15:15:52.556Z,28.00
2018-08-03T15:18:21.176Z,27.90
2018-08-03T15:20:49.820Z,27.90
2018-08-03T15:23:18.486Z,27.80
2018-08-03T15:28:15.759Z,27.90
2018-08-03T15:30:44.366Z,27.90
2018-08-03T15:33:13.058Z,27.90
2018-08-03T15:35:42.005Z,27.80
2018-08-03T15:38:10.623Z,27.60
2018-08-03T15:40:40.458Z,27.60
2018-08-03T15:43:09.276Z,27.60
2018-08-03T15:45:38.685Z,27.60
2018-08-03T15:48:07.470Z,27.60
2018-08-03T15:53:04.549Z,27.40
2018-08-03T15:58:02.000Z,27.40
2018-08-03T16:00:30.649Z,27.30
2018-08-03T16:02:59.227Z,27.20
2018-08-03T16:05:28.528Z,27.20
2018-08-03T16:07:57.321Z,27.20
2018-08-03T16:10:26.025Z,27.30
2018-08-03T16:12:55.040Z,27.10
2018-08-03T16:15:23.681Z,27.20
2018-08-03T16:17:53.641Z,27.10
2018-08-03T16:20:22.224Z,27.00
2018-08-03T16:22:50.858Z,26.90
2018-08-03T16:25:19.616Z,26.90
2018-08-03T16:27:48.700Z,27.00
2018-08-03T16:30:17.250Z,27.00
2018-08-03T16:32:46.224Z,26.90
2018-08-03T16:35:14.849Z,26.90
2018-08-03T16:37:44.432Z,26.80
2018-08-03T16:40:13.005Z,26.70
2018-08-03T16:42:41.751Z,26.60
2018-08-03T16:45:10.378Z,26.70
2018-08-03T16:47:39.128Z,26.50
2018-08-03T16:50:08.313Z,26.40
2018-08-03T16:52:36.983Z,26.40
2018-08-03T16:55:06.171Z,26.30
2018-08-03T16:57:34.828Z,26.20
2018-08-03T17:00:03.881Z,26.10
2018-08-03T17:02:32.682Z,26.20
2018-08-03T17:05:01.446Z,26.20
2018-08-03T17:07:30.751Z,26.10
2018-08-03T17:10:00.114Z,26.00
2018-08-03T17:12:29.119Z,26.00
2018-08-03T17:14:57.809Z,25.90
2018-08-03T17:17:26.772Z,25.90
2018-08-03T17:22:24.178Z,25.80
2018-08-03T17:24:53.287Z,25.80
2018-08-03T17:27:22.202Z,25.70
2018-08-03T17:29:51.115Z,25.50
2018-08-03T17:32:19.717Z,25.50
2018-08-03T17:34:48.658Z,25.40
2018-08-03T17:37:18.154Z,25.60
2018-08-03T17:39:47.225Z,25.40
2018-08-03T17:42:16.089Z,25.40
2018-08-03T17:44:44.796Z,25.30
2018-08-03T17:47:13.786Z,25.20
2018-08-03T17:49:42.600Z,25.20
2018-08-03T17:52:11.237Z,25.10
2018-08-03T17:57:08.691Z,25.00
2018-08-03T17:59:37.344Z,25.10
2018-08-03T18:02:06.208Z,25.10
2018-08-03T18:04:35.240Z,25.00
2018-08-03T18:07:04.208Z,25.00
2018-08-03T18:09:33.383Z,24.80
2018-08-03T18:12:02.296Z,24.80
2018-08-03T18:14:31.018Z,24.70
2018-08-03T18:16:59.914Z,24.60
2018-08-03T18:21:57.112Z,24.50
2018-08-03T18:24:25.724Z,24.50
2018-08-03T18:26:54.874Z,24.40
2018-08-03T18:29:23.882Z,24.30
2018-08-03T18:31:52.770Z,24.30
2018-08-03T18:34:21.364Z,24.20
2018-08-03T18:36:49.943Z,24.10
2018-08-03T18:39:18.553Z,24.00
2018-08-03T18:41:47.266Z,24.00
2018-08-03T18:44:16.866Z,24.00
2018-08-03T18:46:45.500Z,24.00
2018-08-03T18:49:14.878Z,24.10
2018-08-03T18:51:43.820Z,24.00
2018-08-03T18:54:12.678Z,23.90
2018-08-03T18:56:41.290Z,23.70
2018-08-03T18:59:10.973Z,23.60
2018-08-03T19:01:39.561Z,23.50
2018-08-03T19:04:08.679Z,23.40
2018-08-03T19:06:37.398Z,23.40
2018-08-03T19:09:07.633Z,23.30
2018-08-03T19:11:36.362Z,23.10
2018-08-03T19:14:05.237Z,23.00
2018-08-03T19:16:33.937Z,23.00
2018-08-03T19:19:02.900Z,22.90
2018-08-03T19:21:31.763Z,22.80
2018-08-03T19:24:01.094Z,22.70
2018-08-03T19:26:29.705Z,22.60
2018-08-03T19:28:58.401Z,22.60
2018-08-03T19:31:27.132Z,22.50
2018-08-03T19:33:55.934Z,22.40
2018-08-03T19:36:24.921Z,22.30
2018-08-03T19:38:53.621Z,22.30
2018-08-03T19:41:22.437Z,22.20
2018-08-03T19:43:51.164Z,22.10
2018-08-03T19:46:20.226Z,22.10
2018-08-03T19:48:49.085Z,22.00
2018-08-03T19:51:18.228Z,21.90
2018-08-03T19:53:46.900Z,21.80
2018-08-03T19:56:15.636Z,21.70
2018-08-03T19:58:44.578Z,21.70
2018-08-03T20:01:13.354Z,21.60
2018-08-03T20:03:42.199Z,21.50
2018-08-03T20:06:11.609Z,21.50
2018-08-03T20:08:40.417Z,21.40
2018-08-03T20:13:37.834Z,21.30
2018-08-03T20:16:06.726Z,21.30
2018-08-03T20:18:35.870Z,21.20
2018-08-03T20:21:04.812Z,21.10
2018-08-03T20:23:34.105Z,21.00
2018-08-03T20:26:03.238Z,21.00
2018-08-03T20:28:32.168Z,20.90
2018-08-03T20:31:01.611Z,20.90
2018-08-03T20:33:30.332Z,20.80
2018-08-03T20:35:59.275Z,20.80
2018-08-03T20:38:28.075Z,20.70
2018-08-03T20:40:56.977Z,20.70
2018-08-03T20:43:25.901Z,20.60
2018-08-03T20:45:54.609Z,20.60
2018-08-03T20:48:23.643Z,20.50
2018-08-03T20:50:52.650Z,20.50
2018-08-03T20:53:21.947Z,20.50
2018-08-03T20:55:50.788Z,20.40
2018-08-03T20:58:19.938Z,20.30
2018-08-03T21:00:49.551Z,20.30
2018-08-03T21:03:18.665Z,20.20
2018-08-03T21:05:47.546Z,20.20
2018-08-03T21:08:16.897Z,20.20
2018-08-03T21:10:45.797Z,20.20
2018-08-03T21:13:14.420Z,20.10
2018-08-03T21:18:11.261Z,20.10
2018-08-03T21:20:39.993Z,20.00
2018-08-03T21:23:08.806Z,20.00
2018-08-03T21:25:37.431Z,20.00
2018-08-03T21:28:06.335Z,19.90
2018-08-03T21:30:35.029Z,19.90
2018-08-03T21:33:03.709Z,19.90
2018-08-03T21:35:32.551Z,19.80
2018-08-03T21:38:01.537Z,19.90
2018-08-03T21:40:30.184Z,19.90
2018-08-03T21:42:59.058Z,19.80
2018-08-03T21:45:27.848Z,19.80
2018-08-03T21:50:24.977Z,19.70
2018-08-03T21:52:53.634Z,19.60
2018-08-03T21:55:22.363Z,19.60
2018-08-03T21:57:51.174Z,19.60
2018-08-03T22:00:22.609Z,19.50
2018-08-03T22:02:51.359Z,19.50
2018-08-03T22:05:20.933Z,19.50
2018-08-03T22:07:49.626Z,19.40
2018-08-03T22:10:19.117Z,19.40
2018-08-03T22:12:47.706Z,19.40
2018-08-03T22:15:16.494Z,19.40
2018-08-03T22:17:45.296Z,19.40
2018-08-03T22:20:13.993Z,19.40
2018-08-03T22:22:43.215Z,19.30
2018-08-03T22:27:40.345Z,19.30
2018-08-03T22:30:09.019Z,19.30
2018-08-03T22:32:37.853Z,19.30
2018-08-03T22:35:07.442Z,19.30
2018-08-03T22:37:36.033Z,19.30
2018-08-03T22:40:05.071Z,19.30
2018-08-03T22:42:33.864Z,19.30
2018-08-03T22:45:02.817Z,19.30
2018-08-03T22:47:31.444Z,19.30
2018-08-03T22:50:01.302Z,19.20
2018-08-03T22:52:29.902Z,19.20
2018-08-03T22:57:27.281Z,19.00
2018-08-03T22:59:55.960Z,19.00
2018-08-03T23:04:53.160Z,19.00
2018-08-03T23:07:21.728Z,18.90
2018-08-03T23:09:51.812Z,18.80
2018-08-03T23:12:21.156Z,18.80
2018-08-03T23:14:50.139Z,19.10
2018-08-03T23:17:18.961Z,19.10
2018-08-03T23:19:48.136Z,19.00
2018-08-03T23:22:16.996Z,19.00
2018-08-03T23:24:46.102Z,19.00
2018-08-03T23:27:14.891Z,18.90
2018-08-03T23:29:43.638Z,18.90
2018-08-03T23:32:12.813Z,18.90
2018-08-03T23:34:41.748Z,18.90
2018-08-03T23:37:10.835Z,18.80
2018-08-03T23:42:07.698Z,18.90
2018-08-03T23:44:36.680Z,18.90
2018-08-03T23:47:05.986Z,18.80
2018-08-03T23:49:35.110Z,18.80
2018-08-03T23:52:03.949Z,18.80
2018-08-03T23:54:32.929Z,18.80
2018-08-03T23:57:01.891Z,18.80
2018-08-03T23:59:31.242Z,18.90
